SVSA

Details ICAO SVSA (SVZ)
Name SAN ANTONIO DEL TACHIRA
Region Venezuela
Timezone America/Caracas (UTC-4.0)
Plans Departing 6
Arriving 13
Stats Elevation 1,312 ft / 400 m (AMSL)
Location 7.840830° -72.439700°
Runways 1
Magnetic Variation 8.930° W
Sunrise 2018-12-19 10:58:11 UTC / 2018-12-19 06:58:11 Local
Sunset 2018-12-19 22:38:10 UTC / 2018-12-19 18:38:10 Local
Advertisement - Login to hide

Runways

ID Width Length Bearing (true/mag) Surface Threshold Overrun Markings Lighting
17 131 ft / 40 m 6,166 ft / 1,879 m 165.58° / 174.51° ASPHALT 0 ft / 0 m 0 ft / 0 m APP
35 131 ft / 40 m 6,166 ft / 1,879 m 345.58° / 354.51° ASPHALT 0 ft / 0 m 0 ft / 0 m APP

Map

Weather


0- 5 10 15 20 25 30 35+ Temperature / °C

Clouds and Precipitation
Forecast for 2018-12-19 06:00 UTC. Updated 2 hours ago

Ground ~20,000 ft ~40,000 ft Winds

METAR

Not found

TAF

TAF SVSA 182200Z 1818/1918 14005KT 9999 FEW020 TX32/19Z TN22/09Z BECMG 1818/1822 14008KT SCT020 SCT090

Frequencies

Ground 121.90 MHz
Tower 118.50 MHz
Warning: Do not use this data for real-world aviation or navigation. No guarantee of current accuracy is given.